Latest Weather Observations for Cressy

IDT60801

Issued at 3:05 am EST Thursday 31 July 2014 (issued every 30 minutes, with the page automatically refreshed every 10 minutes)

About weather observations | Map of weather stations | Latest weather observations for TAS | Other Formats
Station Details ID: 091306 Name: CRESSY RESEARCH STATION Lat: -41.73 Lon: 147.08 Height: 148.0 m
Data from the previous 72 hours. | See also: Recent months at Cressy
Date/Time
EST
Temp
°C
App
Temp
°C
Dew
Point
Rel
Hum
%
Delta-T
°C
Wind Press
QNH
hPa
Press
MSL
hPa
Rain
since 9 am
mm
Dir
 
Spd
km/h
Gust
km/h
Spd
kts
Gust
kts
31/03:00am 11.2 3.3 10.9 98 0.2 NNW 43 56 23 30 - - 3.6
31/02:43am 11.8 3.5 11.5 98 0.2 NNW 46 65 25 35 - - 3.6
31/02:30am 11.5 3.5 11.2 98 0.2 NNW 44 57 24 31 - - 3.6
31/02:00am 11.5 2.4 11.3 99 0.1 NNW 50 74 27 40 - - 3.6
31/01:30am 11.7 1.9 11.5 99 0.1 NNW 54 67 29 36 - - 1.4
31/01:00am 11.6 3.3 11.4 99 0.1 NNW 46 61 25 33 - - 1.0
31/12:48am 11.4 4.0 11.2 99 0.1 NNW 41 59 22 32 - - 1.0
31/12:30am 10.9 3.7 10.7 99 0.1 NNW 39 52 21 28 - - 0.8
31/12:00am 11.0 3.1 10.7 98 0.2 NNW 43 56 23 30 - - 0.8
 
Date/Time
EST
Temp
°C
App
Temp
°C
Dew
Point
Rel
Hum
%
Delta-T
°C
Wind Press
QNH
hPa
Press
MSL
hPa
Rain
since 9 am
mm
Dir
 
Spd
km/h
Gust
km/h
Spd
kts
Gust
kts
30/11:30pm 11.0 2.5 10.7 98 0.2 NNW 46 57 25 31 - - 0.6
30/11:00pm 10.9 2.9 10.6 98 0.2 NNW 43 61 23 33 - - 0.6
30/10:57pm 10.9 2.9 10.6 98 0.2 NNW 43 61 23 33 - - 0.6
30/10:30pm 10.7 3.5 10.4 98 0.2 NNW 39 50 21 27 - - 0.4
30/10:04pm 10.8 2.3 10.5 98 0.2 NNW 46 65 25 35 - - 0.4
30/10:00pm 11.0 2.1 10.7 98 0.2 NNW 48 65 26 35 - - 0.4
30/09:56pm 11.1 2.6 10.8 98 0.2 NNW 46 65 25 35 - - 0.4
30/09:30pm 11.0 2.8 10.5 97 0.3 NNW 44 57 24 31 - - 0.4
30/09:00pm 11.0 1.0 10.7 98 0.2 NNW 54 72 29 39 - - 0.4
30/08:36pm 11.2 2.8 10.9 98 0.2 NNW 46 69 25 37 - - 0.4
30/08:30pm 11.1 2.6 10.8 98 0.2 NNW 46 61 25 33 - - 0.4
30/08:00pm 10.9 2.0 10.6 98 0.2 NNW 48 61 26 33 - - 0.2
30/07:42pm 11.4 3.4 11.1 98 0.2 NNW 44 67 24 36 - - 0.0
30/07:30pm 11.2 3.3 10.7 97 0.3 NNW 43 54 23 29 - - 0.0
30/07:00pm 11.1 3.2 10.8 98 0.2 NNW 43 56 23 30 - - 0.0
30/06:30pm 11.1 5.6 10.6 97 0.3 NNW 30 46 16 25 - - 0.0
30/06:28pm 11.1 6.0 10.6 97 0.3 NNW 28 46 15 25 - - 0.0
30/06:00pm 11.0 4.7 9.8 92 0.6 NNW 33 44 18 24 - - 0.0
30/05:50pm 11.4 4.7 9.7 89 0.9 NNW 35 57 19 31 - - 0.0
30/05:30pm 11.6 6.2 10.8 95 0.4 NW 30 43 16 23 - - 0.0
30/05:02pm 11.5 4.5 11.2 98 0.2 NNW 39 59 21 32 - - 0.0
30/05:00pm 11.4 4.4 11.1 98 0.2 NNW 39 56 21 30 - - 0.0
30/04:43pm 11.3 3.3 11.0 98 0.2 NNW 44 65 24 35 - - 0.0
30/04:30pm 11.8 4.1 11.5 98 0.2 NNW 43 57 23 31 - - 0.0
30/04:12pm 11.9 4.6 11.4 97 0.3 NNW 41 59 22 32 - - 0.0
30/04:00pm 11.8 4.1 11.5 98 0.2 NNW 43 54 23 29 - - 0.0
30/03:30pm 12.4 5.2 11.9 97 0.3 NNW 41 61 22 33 - - 0.0
30/03:27pm 12.7 5.9 12.1 96 0.3 NNW 39 57 21 31 - - 0.0
30/03:00pm 13.0 6.4 12.5 97 0.3 NNW 39 50 21 27 - - 0.0
30/02:45pm 12.4 6.8 12.1 98 0.2 NNW 33 52 18 28 - - 0.0
30/02:30pm 12.2 4.4 11.7 97 0.3 NNW 44 61 24 33 - - 0.0
30/02:23pm 12.0 4.7 11.4 96 0.3 NNW 41 61 22 33 - - 0.0
30/02:00pm 12.5 5.2 11.6 94 0.5 NNW 41 54 22 29 - - 0.0
30/01:44pm 12.4 5.6 11.9 97 0.3 NNW 39 57 21 31 - - 0.0
30/01:30pm 12.0 5.1 11.7 98 0.2 NNW 39 52 21 28 - - 0.0
30/01:18pm 11.4 5.1 10.9 97 0.3 NW 35 54 19 29 - - 0.0
30/01:00pm 12.0 4.6 11.1 94 0.5 NNW 41 54 22 29 - - 0.0
30/12:30pm 12.5 5.9 11.4 93 0.6 NNW 37 50 20 27 - - 0.0
30/12:06pm 11.6 4.8 10.8 95 0.4 NNW 37 57 20 31 - - 0.0
30/12:00pm 11.7 4.9 10.6 93 0.6 NW 37 52 20 28 - - 0.0
30/11:30am 12.5 5.4 10.9 90 0.8 NNW 39 52 21 28 - - 0.0
30/11:00am 12.0 5.7 11.1 94 0.5 NNW 35 50 19 27 - - 0.0
30/10:30am 11.1 5.0 10.3 95 0.4 NNW 33 50 18 27 - - 0.0
30/10:00am 10.8 2.5 9.2 90 0.8 NW 43 57 23 31 - - 0.0
30/09:42am 11.0 3.0 9.1 88 1.0 NNW 41 59 22 32 - - 0.0
30/09:30am 10.9 2.6 9.3 90 0.8 NNW 43 57 23 31 - - 0.0
30/09:13am 10.5 3.2 8.9 90 0.8 NNW 37 56 20 30 - - 0.0
30/09:00am 10.2 3.7 9.1 93 0.5 NNW 33 46 18 25 - - 8.6
30/08:30am 8.8 3.4 8.2 96 0.3 NNW 26 35 14 19 - - 8.6
30/08:00am 8.4 4.0 7.5 94 0.4 NNW 20 30 11 16 - - 8.6
30/07:30am 8.1 2.7 6.2 88 0.9 N 24 33 13 18 - - 8.6
30/07:00am 8.0 2.4 5.5 84 1.1 N 24 35 13 19 - - 8.6
30/06:30am 7.6 1.9 5.1 84 1.1 NNW 24 33 13 18 - - 8.6
30/06:00am 7.4 1.6 4.4 81 1.3 NNW 24 30 13 16 - - 8.6
30/05:30am 8.7 2.5 4.1 73 2.0 NNW 26 44 14 24 - - 8.6
30/05:00am 8.2 3.3 3.9 74 1.9 NW 19 24 10 13 - - 8.6
30/04:30am 8.5 3.1 4.5 76 1.8 NW 22 32 12 17 - - 8.6
30/04:00am 9.1 4.6 4.1 71 2.2 NW 17 26 9 14 - - 8.6
30/03:30am 9.5 3.0 4.9 73 2.1 WNW 28 39 15 21 - - 8.6
30/03:00am 10.0 3.4 4.4 68 2.5 WNW 28 43 15 23 - - 8.6
30/02:38am 10.1 3.1 4.3 67 2.6 WNW 30 50 16 27 - - 8.6
30/02:30am 10.0 2.7 4.6 69 2.4 WNW 32 44 17 24 - - 8.6
30/02:02am 10.3 3.9 5.1 70 2.4 NW 28 46 15 25 - - 8.6
30/02:00am 10.4 3.6 5.0 69 2.5 NW 30 46 16 25 - - 8.6
30/01:49am 9.8 2.6 5.8 76 1.8 NW 33 52 18 28 - - 8.6
30/01:30am 9.9 2.4 6.1 77 1.8 NW 35 50 19 27 - - 8.6
30/01:01am 10.1 3.3 5.3 72 2.2 NW 30 48 16 26 - - 8.6
30/01:00am 9.6 3.4 6.0 78 1.7 NW 28 41 15 22 - - 8.6
30/12:32am 9.0 1.8 7.6 91 0.7 NW 35 56 19 30 - - 8.6
30/12:30am 9.1 1.1 7.5 90 0.8 NW 39 56 21 30 - - 8.6
30/12:05am 9.3 3.0 7.3 87 1.0 NW 30 48 16 26 - - 8.2
30/12:00am 9.6 2.6 6.9 83 1.3 NW 33 48 18 26 - - 8.2
 
Date/Time
EST
Temp
°C
App
Temp
°C
Dew
Point
Rel
Hum
%
Delta-T
°C
Wind Press
QNH
hPa
Press
MSL
hPa
Rain
since 9 am
mm
Dir
 
Spd
km/h
Gust
km/h
Spd
kts
Gust
kts
29/11:30pm 9.4 3.4 7.0 85 1.1 W 28 41 15 22 - - 8.0
29/11:00pm 10.8 2.9 6.2 73 2.2 WNW 37 59 20 32 - - 7.6
29/10:30pm 11.5 3.4 5.4 66 2.8 NW 37 63 20 34 - - 7.6
29/10:00pm 11.1 2.4 5.8 70 2.5 NW 41 59 22 32 - - 7.6
29/09:32pm 10.6 2.8 6.7 77 1.9 NW 37 57 20 31 - - 7.6
29/09:30pm 10.5 2.7 6.8 78 1.8 NW 37 54 20 29 - - 7.6
29/09:04pm 10.3 2.6 7.0 80 1.6 NW 37 56 20 30 - - 7.6
29/09:00pm 10.3 2.2 7.0 80 1.6 NW 39 56 21 30 - - 7.6
29/08:49pm 10.3 3.0 7.0 80 1.6 NW 35 54 19 29 - - 7.6
29/08:30pm 10.3 3.2 6.6 78 1.7 NW 33 44 18 24 - - 7.6
29/08:00pm 10.1 3.7 6.8 80 1.6 NW 30 41 16 22 - - 7.6
29/07:30pm 10.4 4.1 9.0 91 0.7 NW 32 50 17 27 - - 7.6
29/07:00pm 10.8 4.3 10.3 97 0.3 NW 35 54 19 29 - - 7.4
29/06:30pm 10.9 2.4 10.6 98 0.2 NW 46 69 25 37 - - 6.6
29/06:09pm 11.2 4.1 10.9 98 0.2 NW 39 61 21 33 - - 5.8
29/06:00pm 11.0 4.6 10.7 98 0.2 NNW 35 50 19 27 - - 5.8
29/05:52pm 11.0 3.1 10.7 98 0.2 NNW 43 61 23 33 - - 5.2
29/05:30pm 11.8 3.2 11.5 98 0.2 NNW 48 65 26 35 - - 4.0
29/05:00pm 11.5 3.1 11.2 98 0.2 NNW 46 65 25 35 - - 4.0
29/04:33pm 10.5 1.1 10.2 98 0.2 NNW 50 69 27 37 - - 4.0
29/04:30pm 10.4 0.6 10.1 98 0.2 NNW 52 69 28 37 - - 4.0
29/04:03pm 10.7 1.4 10.4 98 0.2 NNW 50 69 27 37 - - 2.6
29/04:00pm 10.5 1.5 10.2 98 0.2 NNW 48 65 26 35 - - 2.2
29/03:55pm 11.0 2.5 10.7 98 0.2 NNW 46 65 25 35 - - 2.0
29/03:30pm 11.5 3.5 11.0 97 0.3 NNW 44 61 24 33 - - 1.6
29/03:28pm 11.6 3.8 11.1 97 0.3 NNW 43 61 23 33 - - 1.6
29/03:00pm 12.0 2.7 10.4 90 0.8 NNW 50 65 27 35 - - 1.6
29/02:30pm 12.1 2.7 10.0 87 1.1 NNW 50 69 27 37 - - 1.6
29/02:29pm 12.0 2.6 10.1 88 1.0 NNW 50 69 27 37 - - 1.6
29/02:00pm 11.9 2.1 10.0 88 1.0 NNW 52 67 28 36 - - 1.6
29/01:30pm 11.4 3.3 10.8 96 0.3 NNW 44 57 24 31 - - 1.6
29/01:00pm 10.2 2.4 9.9 98 0.2 NNW 41 56 22 30 - - 1.6
29/12:32pm 10.2 3.1 9.7 97 0.3 NW 37 56 20 30 - - 1.4
29/12:30pm 10.2 2.7 9.6 96 0.3 NW 39 56 21 30 - - 1.4
29/12:00pm 11.1 3.6 10.8 98 0.2 NW 41 61 22 33 - - 0.8
29/11:33am 11.7 5.1 11.4 98 0.2 NNW 37 56 20 30 - - 0.6
29/11:30am 11.7 4.7 11.4 98 0.2 NNW 39 48 21 26 - - 0.6
29/11:00am 11.2 4.9 10.9 98 0.2 NW 35 46 19 25 - - 0.6
29/10:34am 11.5 4.8 11.0 97 0.3 NW 37 56 20 30 - - 0.0
29/10:30am 11.8 4.4 11.3 97 0.3 NW 41 56 22 30 - - 0.0
29/10:17am 11.9 4.2 11.4 97 0.3 NNW 43 63 23 34 - - 0.0
29/10:00am 11.8 5.2 11.5 98 0.2 NNW 37 50 20 27 - - 0.0
29/09:30am 12.1 3.9 11.6 97 0.3 NNW 46 65 25 35 - - 0.0
29/09:21am 11.8 4.1 11.5 98 0.2 NNW 43 65 23 35 - - 0.0
29/09:00am 11.2 4.1 10.9 98 0.2 NNW 39 52 21 28 - - 14.4
29/08:30am 11.3 5.4 11.1 99 0.1 NNW 33 44 18 24 - - 13.4
29/08:00am 11.0 5.0 10.8 99 0.1 N 33 46 18 25 - - 12.8
29/07:30am 11.5 4.1 11.2 98 0.2 NNW 41 57 22 31 - - 10.8
29/07:05am 11.2 3.4 11.0 99 0.1 NNW 43 61 23 33 - - 10.8
29/07:00am 11.1 2.7 10.9 99 0.1 NNW 46 63 25 34 - - 10.8
29/06:30am 11.2 1.7 11.0 99 0.1 NNW 52 72 28 39 - - 10.2
29/06:25am 11.3 2.2 11.1 99 0.1 NNW 50 72 27 39 - - 10.2
29/06:11am 10.8 5.4 10.8 100 0.0 N 30 50 16 27 - - 9.6
29/06:00am 10.6 4.7 10.4 99 0.1 NNW 32 41 17 22 - - 9.0
29/05:42am 10.6 2.6 10.4 99 0.1 NNW 43 61 23 33 - - 8.6
29/05:30am 10.7 2.5 10.5 99 0.1 NNW 44 57 24 31 - - 8.0
29/05:25am 10.8 4.4 10.8 100 0.0 N 35 54 19 29 - - 7.8
29/05:00am 10.6 6.3 10.6 100 0.0 N 24 35 13 19 - - 6.0
29/04:30am 10.3 4.4 10.3 100 0.0 NNW 32 41 17 22 - - 3.2
29/04:01am 10.6 4.7 10.4 99 0.1 NNW 32 50 17 27 - - 2.2
29/04:00am 10.5 4.6 10.3 99 0.1 NNW 32 41 17 22 - - 2.2
29/03:34am 10.4 5.2 10.2 99 0.1 N 28 48 15 26 - - 2.2
29/03:30am 10.3 5.1 10.1 99 0.1 N 28 37 15 20 - - 2.0
29/03:00am 10.2 5.7 10.0 99 0.1 N 24 33 13 18 - - 1.8
29/02:30am 10.0 5.8 9.9 99 0.1 N 22 32 12 17 - - 1.6
29/02:00am 10.2 4.0 9.9 98 0.2 NNW 33 43 18 23 - - 1.4
29/01:30am 9.7 5.5 9.6 99 0.1 N 22 33 12 18 - - 1.4
29/01:00am 9.1 7.2 9.0 99 0.0 N 9 17 5 9 - - 1.4
29/12:30am 8.9 6.5 8.8 99 0.0 N 11 15 6 8 - - 1.4
29/12:00am 8.9 5.4 8.8 99 0.0 N 17 22 9 12 - - 1.4
 
Date/Time
EST
Temp
°C
App
Temp
°C
Dew
Point
Rel
Hum
%
Delta-T
°C
Wind Press
QNH
hPa
Press
MSL
hPa
Rain
since 9 am
mm
Dir
 
Spd
km/h
Gust
km/h
Spd
kts
Gust
kts
28/11:30pm 9.1 4.3 9.0 99 0.0 NNW 24 33 13 18 - - 1.4
28/11:00pm 9.4 6.8 9.3 99 0.0 N 13 20 7 11 - - 1.0
28/10:30pm 9.1 6.4 9.0 99 0.0 NNW 13 17 7 9 - - 1.0
28/10:00pm 8.5 6.0 8.4 99 0.0 NNW 11 17 6 9 - - 1.0
28/09:30pm 8.2 4.2 8.1 99 0.0 NW 19 22 10 12 - - 1.0
28/09:00pm 8.4 2.7 8.3 99 0.0 NNW 28 32 15 17 - - 1.0
28/08:30pm 8.9 2.5 8.6 98 0.1 NNW 32 41 17 22 - - 1.0
28/08:00pm 8.7 2.0 8.3 97 0.2 NNW 33 44 18 24 - - 1.0
28/07:34pm 9.2 0.8 8.9 98 0.1 NNW 43 61 23 33 - - 1.0
28/07:30pm 9.1 0.1 8.8 98 0.1 NNW 46 63 25 34 - - 1.0
28/07:00pm 10.4 0.5 9.9 97 0.3 NNW 52 70 28 38 - - 0.2
28/06:45pm 10.9 2.9 10.4 97 0.3 NNW 43 63 23 34 - - 0.0
28/06:42pm 11.0 2.9 10.2 95 0.4 NNW 43 59 23 32 - - 0.0
28/06:30pm 11.1 7.8 10.8 98 0.2 N 19 39 10 21 - - 0.0
28/06:00pm 10.8 7.2 10.5 98 0.2 N 20 30 11 16 - - 0.0
28/05:30pm 11.0 6.3 10.7 98 0.2 N 26 37 14 20 - - 0.0
28/05:00pm 11.3 6.6 10.8 97 0.3 N 26 39 14 21 - - 0.0
28/04:30pm 12.0 7.8 11.1 94 0.5 N 24 33 13 18 - - 0.0
28/04:00pm 12.6 7.6 11.0 90 0.8 N 28 37 15 20 - - 0.0
28/03:30pm 13.6 9.8 11.1 85 1.3 N 22 33 12 18 - - 0.0
28/03:00pm 13.2 9.2 10.6 84 1.4 N 22 35 12 19 - - 0.0
28/02:30pm 14.2 9.0 11.5 84 1.5 N 30 39 16 21 - - 0.0
28/02:00pm 14.0 8.8 12.7 92 0.7 N 32 43 17 23 - - 0.0
28/01:30pm 13.9 10.5 12.6 92 0.7 NNW 22 33 12 18 - - 0.0
28/01:00pm 13.4 9.7 12.8 96 0.3 NNW 24 32 13 17 - - 0.0
28/12:30pm 12.7 8.1 12.4 98 0.2 NNW 28 46 15 25 - - 0.0
28/12:23pm 12.4 7.7 11.9 97 0.3 NNW 28 46 15 25 - - 0.0
28/12:00pm 12.7 7.3 12.2 97 0.3 NNW 32 44 17 24 - - 0.0
28/11:56am 12.6 7.2 12.1 97 0.3 NNW 32 44 17 24 - - 0.0
28/11:30am 12.2 9.1 11.7 97 0.3 N 19 26 10 14 - - 0.0
28/11:00am 12.1 8.4 11.6 97 0.3 N 22 32 12 17 - - 0.0
28/10:30am 12.8 7.6 11.7 93 0.6 NNW 30 41 16 22 - - 0.0
28/10:00am 12.3 6.2 11.7 96 0.3 NNW 35 44 19 24 - - 0.0
28/09:30am 11.5 5.8 11.2 98 0.2 NNW 32 41 17 22 - - 0.0
28/09:00am 10.7 5.2 10.4 98 0.2 NNW 30 41 16 22 - - 1.6
28/08:30am 10.4 4.8 10.2 99 0.1 NNW 30 35 16 19 - - 1.6
28/08:00am 9.9 5.3 9.8 99 0.1 NNW 24 30 13 16 - - 1.6
28/07:30am 10.6 7.0 10.4 99 0.1 NNW 20 30 11 16 - - 1.6
28/07:00am 10.8 6.8 10.6 99 0.1 NNW 22 30 12 16 - - 1.2
28/06:30am 11.1 6.4 10.8 98 0.2 NNW 26 37 14 20 - - 0.0
28/06:00am 11.5 7.7 11.2 98 0.2 NNW 22 33 12 18 - - 0.0
28/05:30am 11.5 8.7 11.2 98 0.2 N 17 24 9 13 - - 0.0
28/05:00am 11.3 7.1 11.0 98 0.2 N 24 35 13 19 - - 0.0
28/04:30am 11.2 7.3 10.9 98 0.2 N 22 28 12 15 - - 0.0
28/04:00am 11.1 6.4 10.8 98 0.2 N 26 33 14 18 - - 0.0
28/03:30am 10.9 5.8 10.6 98 0.2 NNW 28 37 15 20 - - 0.0

Other Formats:

Comma delimited format used in spreadsheet applications
http://www.bom.gov.au/fwo/IDT60801/IDT60801.95969.axf

JavaScript Object Notation format (JSON) in row-major order
http://www.bom.gov.au/fwo/IDT60801/IDT60801.95969.json